createdAt,value
2022-08-17T04:06:13.544Z,72.20
2022-08-17T04:07:14.436Z,72.30
2022-08-17T04:08:14.411Z,72.30
2022-08-17T04:09:14.403Z,72.30
2022-08-17T04:10:14.395Z,72.30
2022-08-17T04:11:14.403Z,72.30
2022-08-17T04:12:14.412Z,72.40
2022-08-17T04:13:14.372Z,72.40
2022-08-17T04:14:14.360Z,72.40
2022-08-17T04:15:14.376Z,72.40
2022-08-17T04:16:14.340Z,72.40
2022-08-17T04:17:14.325Z,72.40
2022-08-17T04:18:14.296Z,72.50
2022-08-17T04:19:14.299Z,72.50
2022-08-17T04:20:14.316Z,72.60
2022-08-17T04:21:14.284Z,72.40
2022-08-17T04:22:31.401Z,72.50
2022-08-17T04:23:14.257Z,72.50
2022-08-17T04:24:14.230Z,72.50
2022-08-17T04:25:14.300Z,72.50
2022-08-17T04:26:53.837Z,72.50
2022-08-17T04:27:14.214Z,72.40
2022-08-17T04:28:15.819Z,72.30
2022-08-17T04:29:14.184Z,72.40
2022-08-17T04:30:14.205Z,72.40
2022-08-17T04:31:14.162Z,72.30
2022-08-17T04:32:14.161Z,72.30
2022-08-17T04:33:14.505Z,72.10
2022-08-17T04:34:14.125Z,72.20
2022-08-17T04:35:14.121Z,72.20
2022-08-17T04:36:14.131Z,72.20
2022-08-17T04:37:14.133Z,72.20
2022-08-17T04:38:14.098Z,72.20
2022-08-17T04:39:14.087Z,72.20
2022-08-17T04:40:14.098Z,72.10
2022-08-17T04:41:14.057Z,72.20
2022-08-17T04:42:14.027Z,72.17
2022-08-17T04:43:14.021Z,72.20
2022-08-17T04:44:14.016Z,72.17
2022-08-17T04:45:14.023Z,72.17
2022-08-17T04:46:13.998Z,72.17
2022-08-17T04:47:13.991Z,72.17
2022-08-17T04:48:13.959Z,72.06
2022-08-17T04:49:14.005Z,71.97
2022-08-17T04:50:13.955Z,71.77
2022-08-17T04:51:13.954Z,71.77
2022-08-17T04:52:32.196Z,71.77
2022-08-17T04:53:13.910Z,71.77
2022-08-17T04:54:13.908Z,71.77
2022-08-17T04:55:13.907Z,71.66
2022-08-17T04:56:17.067Z,71.77
2022-08-17T04:57:13.888Z,71.77
2022-08-17T04:58:13.865Z,71.66
2022-08-17T04:59:13.882Z,71.56
2022-08-17T05:00:13.853Z,71.66
2022-08-17T05:01:13.916Z,71.66
2022-08-17T05:02:13.840Z,71.86
2022-08-17T05:03:13.804Z,71.66
2022-08-17T05:04:32.894Z,71.66
2022-08-17T05:05:13.794Z,71.66
2022-08-17T05:06:13.801Z,71.56
2022-08-17T05:07:13.748Z,71.66
2022-08-17T05:08:13.834Z,71.47
2022-08-17T05:09:13.747Z,71.56
2022-08-17T05:10:13.763Z,71.56
2022-08-17T05:11:13.755Z,71.53
2022-08-17T05:12:13.715Z,71.63
2022-08-17T05:13:13.723Z,71.63
2022-08-17T05:14:13.705Z,71.73
2022-08-17T05:15:13.722Z,71.63
2022-08-17T05:16:13.676Z,71.63
2022-08-17T05:17:20.337Z,71.53
2022-08-17T05:18:13.678Z,71.63
2022-08-17T05:19:13.649Z,71.53
2022-08-17T05:20:13.624Z,71.43
2022-08-17T05:21:13.602Z,71.43
2022-08-17T05:22:13.591Z,71.43
2022-08-17T05:23:13.624Z,71.33
2022-08-17T05:24:38.236Z,71.23
2022-08-17T05:25:13.563Z,71.23
2022-08-17T05:26:25.432Z,71.23
2022-08-17T05:27:15.087Z,71.00
2022-08-17T05:28:13.529Z,71.00
2022-08-17T05:29:14.272Z,70.79
2022-08-17T05:30:13.512Z,70.79
2022-08-17T05:31:13.495Z,70.79
2022-08-17T05:32:38.059Z,70.69
2022-08-17T05:33:13.481Z,70.79
2022-08-17T05:34:13.480Z,70.69
2022-08-17T05:35:13.685Z,70.59
2022-08-17T05:37:08.522Z,70.59
2022-08-17T05:38:09.541Z,70.39
2022-08-17T05:39:10.772Z,70.36
2022-08-17T05:40:09.558Z,70.16
2022-08-17T05:41:09.486Z,70.06
2022-08-17T05:42:09.462Z,70.06
2022-08-17T05:43:09.453Z,69.86
2022-08-17T05:44:09.452Z,69.66
2022-08-17T05:45:09.499Z,69.56
2022-08-17T05:46:09.421Z,69.26
2022-08-17T05:47:09.757Z,69.12
2022-08-17T05:48:09.430Z,68.92
2022-08-17T05:49:09.399Z,68.82
2022-08-17T05:50:10.094Z,68.73
2022-08-17T05:51:09.375Z,68.52
2022-08-17T05:52:09.358Z,68.29
2022-08-17T05:53:09.366Z,68.09
2022-08-17T05:54:09.354Z,68.09
2022-08-17T05:55:09.411Z,67.89
2022-08-17T05:56:13.098Z,67.69
2022-08-17T05:57:09.316Z,67.55
2022-08-17T05:58:09.316Z,67.46
2022-08-17T05:59:13.490Z,67.25
2022-08-17T06:00:10.054Z,67.05
2022-08-17T06:01:09.345Z,67.05
2022-08-17T06:02:09.278Z,66.66
2022-08-17T06:03:09.255Z,66.63
2022-08-17T06:04:09.988Z,66.63
2022-08-17T06:05:09.236Z,66.63
2022-08-17T06:06:09.243Z,66.63
2022-08-17T06:07:09.211Z,66.52
2022-08-17T06:08:09.216Z,66.63
2022-08-17T06:09:09.172Z,66.63
2022-08-17T06:10:09.213Z,66.42
2022-08-17T06:11:10.036Z,66.32
2022-08-17T06:12:09.139Z,66.42
2022-08-17T06:13:09.123Z,66.32
2022-08-17T06:14:09.126Z,66.32
2022-08-17T06:15:09.212Z,66.42
2022-08-17T06:16:28.199Z,66.22
2022-08-17T06:17:09.107Z,66.22
2022-08-17T06:18:09.080Z,65.99
2022-08-17T06:19:09.046Z,65.79
2022-08-17T06:20:09.062Z,65.79
2022-08-17T06:21:09.057Z,65.59
2022-08-17T06:22:09.023Z,65.39
2022-08-17T06:23:09.023Z,65.39
2022-08-17T06:24:09.005Z,65.29
2022-08-17T06:25:10.004Z,65.19
2022-08-17T06:26:09.063Z,65.19
2022-08-17T06:27:08.988Z,65.06
2022-08-17T06:28:08.960Z,64.96
2022-08-17T06:29:08.941Z,64.76
2022-08-17T06:30:08.942Z,64.56
2022-08-17T06:31:08.920Z,64.36
2022-08-17T06:32:08.910Z,64.46
2022-08-17T06:33:08.890Z,64.13
2022-08-17T06:34:08.917Z,64.03
2022-08-17T06:35:08.861Z,64.03
2022-08-17T06:36:09.518Z,63.83
2022-08-17T06:37:08.883Z,63.40
2022-08-17T06:38:08.860Z,63.30
2022-08-17T06:39:08.843Z,63.30
2022-08-17T06:40:08.852Z,63.30
2022-08-17T06:41:08.863Z,63.30
2022-08-17T06:42:08.810Z,62.67
2022-08-17T06:43:09.244Z,62.48
2022-08-17T06:44:08.776Z,62.37
2022-08-17T06:45:08.774Z,62.48
2022-08-17T06:46:08.807Z,62.67
2022-08-17T06:47:08.979Z,62.18
2022-08-17T06:48:08.727Z,62.15
2022-08-17T06:49:08.721Z,61.85
2022-08-17T06:50:08.715Z,61.65
2022-08-17T06:51:08.731Z,61.61
2022-08-17T06:52:08.681Z,61.02
2022-08-17T06:53:08.878Z,60.59
2022-08-17T06:54:08.678Z,60.59
2022-08-17T06:55:08.656Z,60.69
2022-08-17T06:56:08.637Z,60.59
2022-08-17T06:57:08.662Z,60.69
2022-08-17T06:58:15.735Z,60.29
2022-08-17T06:59:08.631Z,60.06
2022-08-17T07:00:08.959Z,59.66
2022-08-17T07:01:08.616Z,59.47
2022-08-17T07:02:08.578Z,59.56
2022-08-17T07:03:08.842Z,59.34
2022-08-17T07:04:11.885Z,58.74
2022-08-17T07:05:08.542Z,58.94
2022-08-17T07:06:08.541Z,58.54
2022-08-17T07:07:08.533Z,58.54
2022-08-17T07:08:08.492Z,58.14
2022-08-17T07:09:08.506Z,58.74
2022-08-17T07:10:08.475Z,58.54
2022-08-17T07:11:08.463Z,58.64
2022-08-17T07:12:08.506Z,58.71
2022-08-17T07:13:08.463Z,58.31
2022-08-17T07:14:08.662Z,57.99
2022-08-17T07:15:08.425Z,57.89
2022-08-17T07:16:08.619Z,57.29
2022-08-17T07:17:08.427Z,57.09
2022-08-17T07:18:08.387Z,57.06
2022-08-17T07:19:08.397Z,56.57
2022-08-17T07:20:08.374Z,56.34
2022-08-17T07:21:08.391Z,56.04
2022-08-17T07:22:08.342Z,55.72
2022-08-17T07:23:08.359Z,55.52
2022-08-17T07:24:08.375Z,55.12
2022-08-17T07:25:08.318Z,55.12
2022-08-17T07:26:08.334Z,55.00
2022-08-17T07:27:08.360Z,54.90
2022-08-17T07:28:08.298Z,54.80
2022-08-17T07:29:08.275Z,54.87
2022-08-17T07:30:10.865Z,54.68
2022-08-17T07:31:08.313Z,54.57
2022-08-17T07:32:08.258Z,54.28
2022-08-17T07:33:08.228Z,54.68
2022-08-17T07:34:08.224Z,54.38
2022-08-17T07:35:08.234Z,54.17
2022-08-17T07:36:08.205Z,53.88
2022-08-17T07:37:08.200Z,53.85
2022-08-17T07:38:24.776Z,53.68
2022-08-17T07:39:08.179Z,54.28
2022-08-17T07:40:15.971Z,54.77
2022-08-17T07:41:08.142Z,54.77
2022-08-17T07:42:08.131Z,54.68
2022-08-17T07:43:08.170Z,54.68
2022-08-17T07:44:08.108Z,54.45
2022-08-17T07:45:08.310Z,54.25
2022-08-17T07:46:08.076Z,54.15
2022-08-17T07:47:08.066Z,54.15
2022-08-17T07:48:08.071Z,53.85
2022-08-17T07:49:08.052Z,53.63
2022-08-17T07:50:08.096Z,53.53
2022-08-17T07:51:08.042Z,53.53
2022-08-17T07:52:13.566Z,53.41
2022-08-17T07:53:08.059Z,53.41
2022-08-17T07:54:14.383Z,53.20
2022-08-17T07:55:08.014Z,52.98
2022-08-17T07:56:08.581Z,52.78
2022-08-17T07:57:08.181Z,52.59
2022-08-17T07:58:07.969Z,52.59
2022-08-17T07:59:07.982Z,52.59
2022-08-17T08:00:07.930Z,52.49
2022-08-17T08:01:07.961Z,52.07
2022-08-17T08:02:08.066Z,51.97
2022-08-17T08:03:07.904Z,51.87
2022-08-17T08:04:07.876Z,51.87
2022-08-17T08:05:08.635Z,52.07
2022-08-17T08:06:07.856Z,52.17
2022-08-17T08:07:08.558Z,52.26
2022-08-17T08:08:07.837Z,52.56
2022-08-17T08:09:07.843Z,52.66
2022-08-17T08:10:07.833Z,52.36
2022-08-17T08:11:07.807Z,52.07
2022-08-17T08:12:07.806Z,52.26
2022-08-17T08:13:07.811Z,52.49
2022-08-17T08:14:08.487Z,53.11
2022-08-17T08:15:07.819Z,53.63
2022-08-17T08:16:07.758Z,53.96
2022-08-17T08:17:09.216Z,54.25
2022-08-17T08:18:07.723Z,54.25
2022-08-17T08:19:07.744Z,54.35
2022-08-17T08:20:44.654Z,54.35
2022-08-17T08:21:07.699Z,54.25
2022-08-17T08:22:07.690Z,54.15
2022-08-17T08:23:07.674Z,54.25
2022-08-17T08:24:07.668Z,54.05
2022-08-17T08:25:07.669Z,54.25
2022-08-17T08:26:07.658Z,54.15
2022-08-17T08:27:07.665Z,54.35
2022-08-17T08:28:07.616Z,54.57
2022-08-17T08:29:07.610Z,54.97
2022-08-17T08:30:07.592Z,55.27
2022-08-17T08:31:07.637Z,55.69
2022-08-17T08:32:08.729Z,55.59
2022-08-17T08:33:07.574Z,55.79
2022-08-17T08:34:07.543Z,55.69
2022-08-17T08:35:07.540Z,55.69
2022-08-17T08:36:07.555Z,55.79
2022-08-17T08:37:16.529Z,55.79
2022-08-17T08:38:07.521Z,55.99
2022-08-17T08:39:07.498Z,55.99
2022-08-17T08:40:07.552Z,55.99
2022-08-17T08:41:07.478Z,55.89
2022-08-17T08:42:07.505Z,56.09
2022-08-17T08:43:07.456Z,55.99
2022-08-17T08:44:07.454Z,56.29
2022-08-17T08:45:07.497Z,56.38
2022-08-17T08:46:07.431Z,56.38
2022-08-17T08:47:07.437Z,56.38
2022-08-17T08:48:12.791Z,56.19
2022-08-17T08:49:12.282Z,56.09
2022-08-17T08:50:07.374Z,55.79
2022-08-17T08:51:07.362Z,55.79
2022-08-17T08:52:07.408Z,55.99
2022-08-17T08:53:07.347Z,55.99
2022-08-17T08:54:07.350Z,56.09
2022-08-17T08:55:07.322Z,56.09
2022-08-17T08:56:07.323Z,56.19
2022-08-17T08:57:33.675Z,56.09
2022-08-17T08:58:07.330Z,56.29
2022-08-17T08:59:07.262Z,56.19
2022-08-17T09:00:07.271Z,56.09
2022-08-17T09:01:16.786Z,56.09
2022-08-17T09:02:07.262Z,56.19
2022-08-17T09:03:07.221Z,56.29
2022-08-17T09:04:23.178Z,56.38
2022-08-17T09:05:15.581Z,56.51
2022-08-17T09:06:38.686Z,56.51
2022-08-17T09:07:07.234Z,56.71
2022-08-17T09:08:07.180Z,56.81
2022-08-17T09:09:07.209Z,56.81
2022-08-17T09:10:07.168Z,56.71
2022-08-17T09:11:07.146Z,56.71
2022-08-17T09:12:07.133Z,56.81
2022-08-17T09:13:10.124Z,56.81
2022-08-17T09:14:07.110Z,56.88
2022-08-17T09:15:10.897Z,56.78
2022-08-17T09:16:07.125Z,56.78
2022-08-17T09:17:07.068Z,56.68
2022-08-17T09:19:01.090Z,56.78
2022-08-17T09:19:08.758Z,56.88
2022-08-17T09:20:07.026Z,56.98
2022-08-17T09:21:07.084Z,57.18
2022-08-17T09:22:07.020Z,57.28
2022-08-17T09:23:07.002Z,57.38
2022-08-17T09:24:07.005Z,57.48
2022-08-17T09:25:06.984Z,57.58
2022-08-17T09:26:06.980Z,57.58
2022-08-17T09:27:07.594Z,57.78
2022-08-17T09:28:06.941Z,58.10
2022-08-17T09:29:06.951Z,58.20
2022-08-17T09:30:06.963Z,58.30
2022-08-17T09:31:06.929Z,58.50
2022-08-17T09:32:06.899Z,58.70
2022-08-17T09:33:07.605Z,58.90
2022-08-17T09:34:07.098Z,59.03
2022-08-17T09:35:07.594Z,59.12
2022-08-17T09:36:06.843Z,59.22
2022-08-17T09:37:06.835Z,59.22
2022-08-17T09:38:06.837Z,59.32
2022-08-17T09:39:07.841Z,59.30
2022-08-17T09:40:06.902Z,59.42
2022-08-17T09:41:06.820Z,59.19
2022-08-17T09:42:07.587Z,59.09
2022-08-17T09:43:06.785Z,58.90
2022-08-17T09:44:09.601Z,58.80
2022-08-17T09:45:06.775Z,58.50
2022-08-17T09:46:06.735Z,58.37
2022-08-17T09:47:06.850Z,58.37
2022-08-17T09:48:06.732Z,58.27
2022-08-17T09:49:06.712Z,58.15
2022-08-17T09:50:06.691Z,57.85
2022-08-17T09:51:06.901Z,57.42
2022-08-17T09:52:06.675Z,57.13
2022-08-17T09:53:06.657Z,56.60
2022-08-17T09:54:36.829Z,56.08
2022-08-17T09:55:06.655Z,55.66
2022-08-17T09:56:06.633Z,55.13
2022-08-17T09:57:28.437Z,54.71
2022-08-17T09:58:06.652Z,54.10
2022-08-17T09:59:06.601Z,53.80
2022-08-17T10:00:06.584Z,53.70
2022-08-17T10:01:06.642Z,53.57
2022-08-17T10:02:06.566Z,53.47
2022-08-17T10:03:06.555Z,53.38
2022-08-17T10:04:06.540Z,53.67
2022-08-17T10:05:06.564Z,53.99
2022-08-17T10:06:06.859Z,53.89
2022-08-17T10:07:06.500Z,53.87
2022-08-17T10:08:06.538Z,53.57
2022-08-17T10:09:06.484Z,53.57
2022-08-17T10:10:09.648Z,53.25
2022-08-17T10:11:09.024Z,52.86
2022-08-17T10:12:06.546Z,52.86
2022-08-17T10:13:06.435Z,52.24
2022-08-17T10:14:36.050Z,52.04
2022-08-17T10:15:08.165Z,51.82
2022-08-17T10:16:06.692Z,51.62
2022-08-17T10:17:06.428Z,51.50
2022-08-17T10:18:06.427Z,51.07
2022-08-17T10:19:06.379Z,50.36
2022-08-17T10:20:07.608Z,49.87
2022-08-17T10:21:06.355Z,49.97
2022-08-17T10:22:15.008Z,49.65
2022-08-17T10:23:06.355Z,47.58
2022-08-17T10:24:06.342Z,45.63
2022-08-17T10:25:23.784Z,43.58
2022-08-17T10:26:06.300Z,41.66
2022-08-17T10:27:06.309Z,40.53
2022-08-17T10:28:06.283Z,39.72
2022-08-17T10:29:06.278Z,39.62
2022-08-17T10:30:06.360Z,39.12
2022-08-17T10:32:06.267Z,38.49
2022-08-17T10:33:06.226Z,37.89
2022-08-17T10:34:06.214Z,37.79
2022-08-17T10:35:06.231Z,37.79
2022-08-17T10:36:10.555Z,37.60
2022-08-17T10:37:06.188Z,37.31
2022-08-17T10:38:06.185Z,37.41
2022-08-17T10:39:06.175Z,37.50
2022-08-17T10:40:06.223Z,37.00
2022-08-17T10:41:06.194Z,36.49
2022-08-17T10:42:06.160Z,36.49
2022-08-17T10:43:06.147Z,36.38
2022-08-17T10:44:39.516Z,36.59
2022-08-17T10:45:06.121Z,36.28
2022-08-17T10:46:29.838Z,37.02
2022-08-17T10:47:06.100Z,37.52
2022-08-17T10:48:07.151Z,38.02
2022-08-17T10:49:06.124Z,38.45
2022-08-17T10:50:06.053Z,39.61
2022-08-17T10:51:06.081Z,41.86
2022-08-17T10:52:06.069Z,44.44
2022-08-17T10:53:06.041Z,45.74
2022-08-17T10:54:06.039Z,46.55
2022-08-17T10:55:06.026Z,46.23
2022-08-17T10:56:05.999Z,45.62
2022-08-17T10:57:05.983Z,44.79
2022-08-17T10:58:05.985Z,44.18
2022-08-17T10:59:05.968Z,43.86
2022-08-17T11:00:06.003Z,43.57
2022-08-17T11:01:06.007Z,44.32
2022-08-17T11:02:05.962Z,44.83
2022-08-17T11:03:05.927Z,45.03
2022-08-17T11:04:05.924Z,44.62
2022-08-17T11:05:06.160Z,44.18
2022-08-17T11:06:05.889Z,43.66
2022-08-17T11:07:05.893Z,42.65
2022-08-17T11:08:07.327Z,42.15
2022-08-17T11:09:05.875Z,42.25
2022-08-17T11:10:05.870Z,42.15
2022-08-17T11:11:05.846Z,42.65
2022-08-17T11:12:06.074Z,42.84
2022-08-17T11:13:05.816Z,42.86
2022-08-17T11:14:05.830Z,43.27
2022-08-17T11:15:05.825Z,43.98
2022-08-17T11:16:08.388Z,44.49
2022-08-17T11:17:05.804Z,44.59
2022-08-17T11:18:06.646Z,44.69
2022-08-17T11:19:05.771Z,45.20
2022-08-17T11:20:05.794Z,45.72
2022-08-17T11:21:05.750Z,45.94
2022-08-17T11:22:05.758Z,45.92
2022-08-17T11:23:05.713Z,45.81
2022-08-17T11:24:05.699Z,46.01
2022-08-17T11:25:05.695Z,45.81
2022-08-17T11:26:05.685Z,45.50
2022-08-17T11:27:06.623Z,45.62
2022-08-17T11:28:05.672Z,45.52
2022-08-17T11:29:05.653Z,45.40
2022-08-17T11:30:05.874Z,45.01
2022-08-17T11:31:05.637Z,44.79
2022-08-17T11:32:05.636Z,44.57
2022-08-17T11:33:06.142Z,44.27
2022-08-17T11:34:05.594Z,44.27
2022-08-17T11:35:05.596Z,44.06
2022-08-17T11:36:05.615Z,43.96
2022-08-17T11:37:11.347Z,43.74
2022-08-17T11:38:06.958Z,43.35
2022-08-17T11:39:05.565Z,44.47
2022-08-17T11:40:08.088Z,43.96
2022-08-17T11:41:05.575Z,43.55
2022-08-17T11:42:05.546Z,43.13
2022-08-17T11:43:05.528Z,42.52
2022-08-17T11:44:05.494Z,41.99
2022-08-17T11:45:05.527Z,41.07
2022-08-17T11:46:05.477Z,40.06
2022-08-17T11:47:12.014Z,39.36
2022-08-17T11:49:05.458Z,39.96
2022-08-17T11:50:05.430Z,40.17
2022-08-17T11:51:05.510Z,39.65
2022-08-17T11:52:05.422Z,38.82
2022-08-17T11:53:05.414Z,37.99
2022-08-17T11:54:31.233Z,36.79
2022-08-17T11:55:31.957Z,37.10
2022-08-17T11:56:05.380Z,37.10
2022-08-17T11:57:05.391Z,36.47
2022-08-17T11:58:05.348Z,35.97
2022-08-17T11:59:05.358Z,35.66
2022-08-17T12:00:05.334Z,35.45
2022-08-17T12:01:06.156Z,34.85
2022-08-17T12:02:05.402Z,35.16
2022-08-17T12:03:05.395Z,34.56
2022-08-17T12:04:05.324Z,34.56
2022-08-17T12:05:05.326Z,34.27
2022-08-17T12:06:05.293Z,34.56
2022-08-17T12:07:05.270Z,34.87
2022-08-17T12:08:05.277Z,34.97
2022-08-17T12:09:05.346Z,34.77
2022-08-17T12:10:05.236Z,34.46
2022-08-17T12:11:05.268Z,34.46
2022-08-17T12:12:12.395Z,34.16
2022-08-17T12:13:05.466Z,34.16
2022-08-17T12:14:05.199Z,34.27
2022-08-17T12:15:10.551Z,34.36
2022-08-17T12:16:05.194Z,34.38
2022-08-17T12:17:05.197Z,35.60
2022-08-17T12:18:05.383Z,35.99
2022-08-17T12:19:05.146Z,35.89
2022-08-17T12:20:05.163Z,35.00
2022-08-17T12:21:05.146Z,35.60
2022-08-17T12:22:05.225Z,35.49
2022-08-17T12:23:05.166Z,34.87
2022-08-17T12:24:05.146Z,33.98
2022-08-17T12:25:05.305Z,34.27
2022-08-17T12:26:05.325Z,33.46
2022-08-17T12:27:05.098Z,33.34
2022-08-17T12:28:07.666Z,32.64
2022-08-17T12:29:05.254Z,31.52
2022-08-17T12:30:05.111Z,31.01
2022-08-17T12:31:05.670Z,30.80
2022-08-17T12:32:05.057Z,30.40
2022-08-17T12:33:05.026Z,30.29
2022-08-17T12:34:05.045Z,29.98
2022-08-17T12:35:05.025Z,29.58
2022-08-17T12:36:05.039Z,29.28
2022-08-17T12:37:04.987Z,29.07
2022-08-17T12:38:05.002Z,28.88
2022-08-17T12:39:14.023Z,28.58
2022-08-17T12:40:05.105Z,28.07
2022-08-17T12:41:05.011Z,27.67
2022-08-17T12:42:04.990Z,27.67
2022-08-17T12:43:04.981Z,27.16
2022-08-17T12:44:04.942Z,26.65
2022-08-17T12:45:04.959Z,26.27
2022-08-17T12:46:13.102Z,26.37
2022-08-17T12:47:05.012Z,26.57
2022-08-17T12:48:04.934Z,26.68
2022-08-17T12:49:04.921Z,27.81
2022-08-17T12:50:04.940Z,29.32
2022-08-17T12:51:04.909Z,30.24
2022-08-17T12:52:04.906Z,30.32
2022-08-17T12:53:04.924Z,30.33
2022-08-17T12:54:05.091Z,30.75
2022-08-17T12:55:05.083Z,31.13
2022-08-17T12:56:04.858Z,31.25
2022-08-17T12:57:04.841Z,31.96
2022-08-17T12:58:04.844Z,32.97
2022-08-17T12:59:04.852Z,33.88
2022-08-17T13:00:04.846Z,34.19
2022-08-17T13:01:04.794Z,34.19
2022-08-17T13:02:04.865Z,33.67
2022-08-17T13:03:04.804Z,33.06
2022-08-17T13:04:04.774Z,32.14
2022-08-17T13:05:04.787Z,31.33
2022-08-17T13:06:04.789Z,30.72
2022-08-17T13:07:04.790Z,29.90
2022-08-17T13:08:04.775Z,29.29
2022-08-17T13:09:04.765Z,29.29
2022-08-17T13:10:04.860Z,29.39
2022-08-17T13:11:04.735Z,30.40
2022-08-17T13:12:05.168Z,32.33
2022-08-17T13:13:04.704Z,33.54
2022-08-17T13:14:04.698Z,35.17
2022-08-17T13:15:04.694Z,37.12
2022-08-17T13:16:04.668Z,38.92
2022-08-17T13:17:13.472Z,39.23
2022-08-17T13:18:04.656Z,40.27
2022-08-17T13:19:04.633Z,40.35
2022-08-17T13:20:04.711Z,39.53
2022-08-17T13:21:04.627Z,37.70
2022-08-17T13:22:04.622Z,36.47
2022-08-17T13:23:07.581Z,36.57
2022-08-17T13:24:04.666Z,35.96
2022-08-17T13:25:04.655Z,34.83
2022-08-17T13:26:04.563Z,33.94
2022-08-17T13:27:08.082Z,34.23
2022-08-17T13:28:04.567Z,34.14
2022-08-17T13:29:04.567Z,33.42
2022-08-17T13:30:04.541Z,34.36
2022-08-17T13:31:04.562Z,34.16
2022-08-17T13:32:04.843Z,33.84
2022-08-17T13:33:04.879Z,33.83
2022-08-17T13:34:04.523Z,33.94
2022-08-17T13:35:14.993Z,34.44
2022-08-17T13:36:04.480Z,34.56
2022-08-17T13:37:11.028Z,34.66
2022-08-17T13:38:04.505Z,34.97
2022-08-17T13:39:04.431Z,34.97
2022-08-17T13:40:04.707Z,35.27
2022-08-17T13:41:04.430Z,35.08
2022-08-17T13:42:04.503Z,35.08
2022-08-17T13:43:04.412Z,35.17
2022-08-17T13:44:04.412Z,34.16
2022-08-17T13:45:32.311Z,34.06
2022-08-17T13:46:04.406Z,34.66
2022-08-17T13:47:04.365Z,35.68
2022-08-17T13:48:04.361Z,37.31
2022-08-17T13:49:04.372Z,37.62
2022-08-17T13:50:04.342Z,38.22
2022-08-17T13:51:04.333Z,38.10
2022-08-17T13:52:04.408Z,38.01
2022-08-17T13:53:04.342Z,37.71
2022-08-17T13:54:04.318Z,37.31
2022-08-17T13:55:04.340Z,36.18
2022-08-17T13:56:04.290Z,35.78
2022-08-17T13:57:04.283Z,36.07
2022-08-17T13:58:07.051Z,35.64
2022-08-17T13:59:04.248Z,34.72
2022-08-17T14:00:04.243Z,33.91
2022-08-17T14:01:04.272Z,33.31
2022-08-17T14:02:04.346Z,33.62
2022-08-17T14:03:04.224Z,34.83
2022-08-17T14:04:04.203Z,35.45
2022-08-17T14:05:06.302Z,35.55
2022-08-17T14:06:04.184Z,35.64
2022-08-17T14:07:04.173Z,36.16
2022-08-17T14:08:06.582Z,36.26
2022-08-17T14:09:04.152Z,36.77
2022-08-17T14:10:04.161Z,37.37
2022-08-17T14:11:04.126Z,38.01
2022-08-17T14:12:04.272Z,38.81
2022-08-17T14:13:04.118Z,39.41
2022-08-17T14:14:04.101Z,39.31
2022-08-17T14:15:04.091Z,39.62
2022-08-17T14:16:04.074Z,40.04
2022-08-17T14:17:04.091Z,40.45
2022-08-17T14:18:04.075Z,40.23
2022-08-17T14:19:04.054Z,40.04
2022-08-17T14:20:04.039Z,40.14
2022-08-17T14:21:04.034Z,40.45
2022-08-17T14:22:04.034Z,40.64
2022-08-17T14:23:04.172Z,41.36
2022-08-17T14:24:04.003Z,41.97
2022-08-17T14:25:03.985Z,42.07
2022-08-17T14:26:04.024Z,41.46
2022-08-17T14:27:03.985Z,40.74
2022-08-17T14:28:04.003Z,38.81
2022-08-17T14:29:03.990Z,37.68
2022-08-17T14:30:03.951Z,37.27
2022-08-17T14:31:03.938Z,36.96
2022-08-17T14:32:03.948Z,36.96
2022-08-17T14:33:03.953Z,36.34
2022-08-17T14:34:03.899Z,35.14
2022-08-17T14:35:03.913Z,34.53
2022-08-17T14:36:03.878Z,33.91
2022-08-17T14:37:03.935Z,33.41
2022-08-17T14:38:03.882Z,33.42
2022-08-17T14:39:03.887Z,33.52
2022-08-17T14:40:04.027Z,33.31
2022-08-17T14:41:03.829Z,33.29
2022-08-17T14:42:03.862Z,33.01
2022-08-17T14:43:03.839Z,33.01
2022-08-17T14:44:03.806Z,33.01
2022-08-17T14:45:03.809Z,32.70
2022-08-17T14:46:03.796Z,34.02
2022-08-17T14:47:03.766Z,34.31
2022-08-17T14:48:03.795Z,33.91
2022-08-17T14:49:03.779Z,33.60
2022-08-17T14:50:03.747Z,34.20
2022-08-17T14:51:03.737Z,34.20
2022-08-17T14:52:03.774Z,33.70
2022-08-17T14:53:03.733Z,33.10
2022-08-17T14:54:03.740Z,32.68
2022-08-17T14:55:03.711Z,32.26
2022-08-17T14:56:03.696Z,32.59
2022-08-17T14:57:24.521Z,33.18
2022-08-17T14:58:03.686Z,33.09
2022-08-17T14:59:03.669Z,32.78
2022-08-17T15:00:03.663Z,32.57
2022-08-17T15:01:03.726Z,32.38
2022-08-17T15:02:03.634Z,32.87
2022-08-17T15:03:03.645Z,32.87
2022-08-17T15:04:03.619Z,32.89
2022-08-17T15:05:03.637Z,32.89
2022-08-17T15:06:03.612Z,32.89
2022-08-17T15:07:03.598Z,32.89
2022-08-17T15:08:03.584Z,33.51
2022-08-17T15:09:03.580Z,35.33
2022-08-17T15:10:03.648Z,36.24
2022-08-17T15:11:04.281Z,36.75
2022-08-17T15:12:04.476Z,36.63
2022-08-17T15:13:03.564Z,36.54
2022-08-17T15:14:03.542Z,37.06
2022-08-17T15:15:04.929Z,37.76
2022-08-17T15:16:03.519Z,37.26
2022-08-17T15:17:03.504Z,36.22
2022-08-17T15:18:03.989Z,35.74
2022-08-17T15:19:03.493Z,36.75
2022-08-17T15:20:03.514Z,37.35
2022-08-17T15:21:03.478Z,37.76
2022-08-17T15:22:03.467Z,37.16
2022-08-17T15:23:03.451Z,36.32
2022-08-17T15:24:03.425Z,35.72
2022-08-17T15:25:03.423Z,35.21
2022-08-17T15:26:03.420Z,34.39
2022-08-17T15:27:03.409Z,33.89
2022-08-17T15:28:03.454Z,33.49
2022-08-17T15:29:03.402Z,33.10
2022-08-17T15:30:03.429Z,32.99
2022-08-17T15:31:03.392Z,32.79
2022-08-17T15:32:03.421Z,32.68
2022-08-17T15:33:03.359Z,32.68
2022-08-17T15:34:03.339Z,32.18
2022-08-17T15:35:03.331Z,32.60
2022-08-17T15:36:03.320Z,33.01
2022-08-17T15:37:03.306Z,34.12
2022-08-17T15:38:09.794Z,34.83
2022-08-17T15:39:03.314Z,34.81
2022-08-17T15:40:03.376Z,34.31
2022-08-17T15:41:03.266Z,34.31
2022-08-17T15:42:03.261Z,34.53
2022-08-17T15:43:03.259Z,34.02
2022-08-17T15:44:03.261Z,34.54
2022-08-17T15:45:03.245Z,36.28
2022-08-17T15:46:03.224Z,36.77
2022-08-17T15:47:03.772Z,36.15
2022-08-17T15:48:03.256Z,35.94
2022-08-17T15:49:03.208Z,35.33
2022-08-17T15:50:03.228Z,34.81
2022-08-17T15:51:03.174Z,34.22
2022-08-17T15:52:03.168Z,33.81
2022-08-17T15:53:03.163Z,33.60
2022-08-17T15:54:04.305Z,33.22
2022-08-17T15:55:03.156Z,33.31
2022-08-17T15:56:03.155Z,33.20
2022-08-17T15:57:09.659Z,33.02
2022-08-17T15:58:03.121Z,33.41
2022-08-17T15:59:03.172Z,33.81
2022-08-17T16:00:03.103Z,34.02
2022-08-17T16:01:16.645Z,33.91
2022-08-17T16:03:13.775Z,33.41
2022-08-17T16:04:01.543Z,33.12
2022-08-17T16:04:26.889Z,32.81
2022-08-17T16:05:03.102Z,32.52
2022-08-17T16:06:03.061Z,32.31
2022-08-17T16:07:03.019Z,32.31
2022-08-17T16:08:03.035Z,32.41
2022-08-17T16:09:03.015Z,32.49
2022-08-17T16:10:03.005Z,32.29
2022-08-17T16:11:02.994Z,32.18
2022-08-17T16:12:02.990Z,32.18
2022-08-17T16:13:02.974Z,32.28
2022-08-17T16:14:02.957Z,32.41
2022-08-17T16:15:02.963Z,33.12
2022-08-17T16:16:02.948Z,33.42
2022-08-17T16:17:38.535Z,33.54
2022-08-17T16:18:02.943Z,33.94
2022-08-17T16:19:02.981Z,34.25
2022-08-17T16:20:02.935Z,35.08
2022-08-17T16:21:02.913Z,36.41
2022-08-17T16:22:02.885Z,36.90
2022-08-17T16:23:02.883Z,37.00
2022-08-17T16:24:02.912Z,37.00
2022-08-17T16:25:02.902Z,37.08
2022-08-17T16:26:02.867Z,36.88
2022-08-17T16:27:02.837Z,36.57
2022-08-17T16:28:02.854Z,35.96
2022-08-17T16:29:02.823Z,35.45
2022-08-17T16:30:02.872Z,35.05
2022-08-17T16:31:02.823Z,34.64
2022-08-17T16:32:02.793Z,34.23
2022-08-17T16:33:02.787Z,34.64
2022-08-17T16:34:16.934Z,34.93
2022-08-17T16:35:02.786Z,35.43
2022-08-17T16:36:02.763Z,35.84
2022-08-17T16:37:02.745Z,36.05
2022-08-17T16:38:02.754Z,36.24
2022-08-17T16:39:02.726Z,35.96
2022-08-17T16:40:02.825Z,36.15
2022-08-17T16:41:02.706Z,36.15
2022-08-17T16:42:02.720Z,35.96
2022-08-17T16:43:02.689Z,35.76
2022-08-17T16:44:02.678Z,35.86
2022-08-17T16:45:02.665Z,36.28
2022-08-17T16:46:02.662Z,36.59
2022-08-17T16:47:02.646Z,37.52
2022-08-17T16:48:02.651Z,37.71
2022-08-17T16:49:02.628Z,37.62
2022-08-17T16:50:02.667Z,37.52
2022-08-17T16:51:04.137Z,37.71
2022-08-17T16:52:02.605Z,38.34
2022-08-17T16:53:02.598Z,38.96
2022-08-17T16:54:02.617Z,38.84
2022-08-17T16:55:03.335Z,38.55
2022-08-17T16:56:02.570Z,38.55
2022-08-17T16:57:09.053Z,38.45
2022-08-17T16:58:02.556Z,38.43
2022-08-17T16:59:09.188Z,38.06
2022-08-17T17:00:02.540Z,38.38
2022-08-17T17:01:02.698Z,39.16